Time;durP1;ratioP1;P1;durP2;ratioP2;P2;SDS_P1;SDS_P2;PMS_P1;PMS_P2;Temp;Humidity;BMP_temperature;BMP_pressure;BME280_temperature;BME280_humidity;BME280_pressure;Samples;Min_cycle;Max_cycle;Signal;HPM_P1;HPM_P2
2022/05/26 00:00:53;;;;;;;;;;;;;;;21.44;32.18;98013.78;4996794;28;995;-75
2022/05/26 00:03:19;;;;;;;;;;;;;;;21.51;31.99;98005.13;4996538;28;968;-76
2022/05/26 00:05:44;;;;;;;;;;;;;;;21.39;32.47;98003.00;4996519;28;945;-75
2022/05/26 00:08:11;;;;;;;;;;;;;;;21.43;32.24;97992.38;4996410;28;1021;-75
2022/05/26 00:10:36;;;;;;;;;;;;;;;21.54;31.73;97993.69;4996794;28;1039;-75
2022/05/26 00:13:02;;;;;;;;;;;;;;;21.47;31.94;97988.22;4996593;28;1017;-75
2022/05/26 00:15:27;;;;;;;;;;;;;;;21.56;32.96;97988.41;4996392;28;986;-75
2022/05/26 00:17:53;;;;;;;;;;;;;;;21.74;33.26;97996.41;4996209;28;1989;-75
2022/05/26 00:20:18;;;;;;;;;;;;;;;21.89;33.62;97991.13;4996316;28;1038;-75
2022/05/26 00:22:44;;;;;;;;;;;;;;;21.91;34.34;97982.19;4976668;28;1064;-75
2022/05/26 00:25:09;;;;;;;;;;;;;;;21.67;33.60;97978.81;4977070;28;1025;-75
2022/05/26 00:27:34;;;;;;;;;;;;;;;21.59;33.48;97975.38;4976788;28;1147;-75
2022/05/26 00:30:00;;;;;;;;;;;;;;;21.70;33.29;97978.69;4976646;28;1015;-76
2022/05/26 00:32:26;;;;;;;;;;;;;;;21.57;33.08;97975.03;4976775;28;1495;-76
2022/05/26 00:34:51;;;;;;;;;;;;;;;21.57;32.90;97966.53;4976450;28;1037;-75
2022/05/26 00:37:16;;;;;;;;;;;;;;;21.52;32.75;97967.06;4990733;28;1907;-75
2022/05/26 00:39:42;;;;;;;;;;;;;;;21.54;32.71;97970.25;4996278;28;1041;-76
2022/05/26 00:42:07;;;;;;;;;;;;;;;21.50;32.69;97973.19;4995819;28;1261;-75
2022/05/26 00:44:33;;;;;;;;;;;;;;;21.50;32.65;97975.19;4996008;28;1042;-76
2022/05/26 00:46:58;;;;;;;;;;;;;;;21.55;32.41;97966.16;4996165;28;910;-75
2022/05/26 00:49:25;;;;;;;;;;;;;;;21.50;32.78;97970.38;4996088;28;972;-75
2022/05/26 00:51:51;;;;;;;;;;;;;;;21.40;32.59;97962.13;4996033;28;996;-75
2022/05/26 00:54:19;;;;;;;;;;;;;;;21.18;32.89;97954.16;4990532;28;988;-75
2022/05/26 00:56:49;;;;;;;;;;;;;;;21.38;32.75;97958.97;4975760;28;1902;-75
2022/05/26 00:59:27;;;;;;;;;;;;;;;21.40;32.56;97953.63;4975875;28;991;-75
2022/05/26 01:01:52;;;;;;;;;;;;;;;21.47;32.24;97953.47;4975978;28;996;-75
2022/05/26 01:04:18;;;;;;;;;;;;;;;21.11;32.67;97920.41;4959956;28;1167;-75
2022/05/26 01:07:06;;;;;;;;;;;;;;;21.36;32.53;97965.06;4976189;28;1208;-75
2022/05/26 01:09:31;;;;;;;;;;;;;;;21.45;32.37;97964.41;4960016;28;976;-76
2022/05/26 01:11:56;;;;;;;;;;;;;;;21.40;32.33;97959.28;4975936;28;1115;-75
2022/05/26 01:14:26;;;;;;;;;;;;;;;21.57;31.83;97975.03;4976212;28;994;-75
2022/05/26 01:16:58;;;;;;;;;;;;;;;21.53;32.15;97986.44;4959879;28;1970;-75
2022/05/26 01:19:42;;;;;;;;;;;;;;;21.36;32.17;97992.59;4975878;28;959;-75
2022/05/26 01:22:18;;;;;;;;;;;;;;;21.50;31.81;97986.53;4975691;28;1058;-75
2022/05/26 01:24:53;;;;;;;;;;;;;;;21.45;31.85;97984.22;4964812;28;1124;-75
2022/05/26 01:27:38;;;;;;;;;;;;;;;21.41;32.11;97983.56;4995245;28;999;-75
2022/05/26 01:30:16;;;;;;;;;;;;;;;21.52;31.87;97979.19;4984087;28;919;-75
2022/05/26 01:32:44;;;;;;;;;;;;;;;21.49;31.69;97987.78;4995021;28;967;-76
2022/05/26 01:35:13;;;;;;;;;;;;;;;21.44;31.98;97971.31;4995194;28;957;-75
2022/05/26 01:37:58;;;;;;;;;;;;;;;21.36;31.93;97970.72;4978916;28;1907;-75
2022/05/26 01:40:37;;;;;;;;;;;;;;;21.54;32.21;97975.91;4994504;28;1074;-74
2022/05/26 01:43:16;;;;;;;;;;;;;;;21.75;32.74;97964.00;4978477;28;1058;-75
2022/05/26 01:45:50;;;;;;;;;;;;;;;21.82;33.54;97969.47;4978095;28;1043;-75
2022/05/26 01:48:22;;;;;;;;;;;;;;;21.93;33.76;97962.72;4995056;28;1047;-75
2022/05/26 01:51:03;;;;;;;;;;;;;;;21.76;33.62;97956.28;4955628;29;974;-75
2022/05/26 01:53:28;;;;;;;;;;;;;;;21.59;33.30;97966.88;4956263;29;928;-75
2022/05/26 01:55:59;;;;;;;;;;;;;;;21.57;33.03;97960.88;4955906;29;1020;-75
2022/05/26 01:58:27;;;;;;;;;;;;;;;21.61;32.58;97958.75;4972275;28;2001;-75
2022/05/26 02:00:53;;;;;;;;;;;;;;;21.57;32.67;97949.56;4999399;28;986;-75
2022/05/26 02:03:20;;;;;;;;;;;;;;;21.55;32.83;97932.19;4994808;28;1069;-76
2022/05/26 02:05:47;;;;;;;;;;;;;;;21.59;32.27;97927.22;4994399;28;994;-76
2022/05/26 02:08:17;;;;;;;;;;;;;;;21.47;32.55;97913.84;4975269;28;1002;-75
2022/05/26 02:10:46;;;;;;;;;;;;;;;21.47;32.35;97913.84;4958790;28;1069;-75
2022/05/26 02:13:14;;;;;;;;;;;;;;;21.44;32.45;97926.03;4974930;28;1091;-75
2022/05/26 02:15:41;;;;;;;;;;;;;;;21.50;32.36;97929.91;4958785;28;1035;-75
2022/05/26 02:18:29;;;;;;;;;;;;;;;21.40;32.27;97925.31;4975044;28;1972;-76
2022/05/26 02:20:56;;;;;;;;;;;;;;;21.23;32.55;97916.84;4898249;29;1165;-75
2022/05/26 02:23:24;;;;;;;;;;;;;;;21.37;32.25;97917.75;4898784;29;1430;-76
2022/05/26 02:25:50;;;;;;;;;;;;;;;21.29;32.34;97932.03;4898578;29;993;-75
2022/05/26 02:28:15;;;;;;;;;;;;;;;21.43;31.92;97930.13;4898760;29;990;-75
2022/05/26 02:30:41;;;;;;;;;;;;;;;21.39;32.06;97929.41;4898515;29;955;-75
2022/05/26 02:33:07;;;;;;;;;;;;;;;21.27;32.26;97926.03;4916909;29;1010;-75
2022/05/26 02:35:34;;;;;;;;;;;;;;;21.33;32.31;97927.13;4879696;29;1071;-75
2022/05/26 02:38:03;;;;;;;;;;;;;;;21.45;31.82;97927.63;4842346;29;1911;-76
2022/05/26 02:40:29;;;;;;;;;;;;;;;21.35;32.15;97923.03;4891093;29;1007;-76
2022/05/26 02:42:58;;;;;;;;;;;;;;;21.33;31.86;97929.94;4861144;29;1073;-75
2022/05/26 02:45:26;;;;;;;;;;;;;;;21.45;31.76;97936.09;4860864;29;962;-75
2022/05/26 02:48:10;;;;;;;;;;;;;;;21.43;31.72;97927.28;4861128;29;989;-75
2022/05/26 02:50:35;;;;;;;;;;;;;;;21.25;31.86;97937.03;4861375;29;1050;-75
2022/05/26 02:53:13;;;;;;;;;;;;;;;21.32;31.80;97931.19;4861228;29;1005;-75
2022/05/26 02:55:41;;;;;;;;;;;;;;;21.27;31.70;97917.56;4861363;29;979;-75
2022/05/26 02:58:19;;;;;;;;;;;;;;;21.81;32.28;97914.09;4908514;29;1968;-75
2022/05/26 03:01:04;;;;;;;;;;;;;;;21.78;32.91;97917.78;4939969;29;1075;-75
2022/05/26 03:03:50;;;;;;;;;;;;;;;21.98;33.25;97916.84;4951039;28;958;-75
2022/05/26 03:06:26;;;;;;;;;;;;;;;22.06;33.34;97930.31;4977747;28;1138;-75
2022/05/26 03:08:52;;;;;;;;;;;;;;;21.74;33.16;97934.09;4962414;28;928;-75
2022/05/26 03:11:18;;;;;;;;;;;;;;;21.56;32.99;97925.31;4958913;29;1009;-75
2022/05/26 03:13:43;;;;;;;;;;;;;;;21.59;32.58;97928.03;4951236;29;996;-75
2022/05/26 03:16:09;;;;;;;;;;;;;;;21.58;32.40;97926.44;4958793;29;1258;-75
2022/05/26 03:18:35;;;;;;;;;;;;;;;21.51;32.30;97925.84;4958742;29;1942;-75
2022/05/26 03:21:01;;;;;;;;;;;;;;;21.56;32.35;97928.94;4958817;29;944;-76
2022/05/26 03:23:26;;;;;;;;;;;;;;;21.54;32.43;97931.41;4958392;29;1026;-75
2022/05/26 03:25:53;;;;;;;;;;;;;;;21.54;32.30;97922.13;4939087;29;1236;-75
2022/05/26 03:28:19;;;;;;;;;;;;;;;21.61;32.22;97936.09;4919739;29;1316;-75
2022/05/26 03:30:44;;;;;;;;;;;;;;;21.46;32.30;97932.84;4919950;29;1248;-75
2022/05/26 03:33:09;;;;;;;;;;;;;;;21.43;32.26;97921.63;4919445;29;1248;-75
2022/05/26 03:41:03;;;;;;;;;;;;;;;21.47;32.05;97925.16;4917691;29;1814;-76
2022/05/26 03:43:30;;;;;;;;;;;;;;;21.43;32.05;97941.44;4918137;29;1805;-76
2022/05/26 03:45:57;;;;;;;;;;;;;;;21.39;32.15;97937.91;4938646;29;917;-75
2022/05/26 03:48:23;;;;;;;;;;;;;;;21.41;32.25;97938.25;4926398;29;1120;-75
2022/05/26 03:50:48;;;;;;;;;;;;;;;21.46;31.85;97932.06;4939220;29;988;-75
2022/05/26 03:53:14;;;;;;;;;;;;;;;21.44;31.90;97934.53;4901128;29;940;-75
2022/05/26 03:55:40;;;;;;;;;;;;;;;21.44;32.16;97926.03;4901293;29;945;-75
2022/05/26 03:58:05;;;;;;;;;;;;;;;21.47;31.76;97937.28;4896089;29;1907;-75
2022/05/26 04:00:31;;;;;;;;;;;;;;;21.36;32.07;97939.59;4900900;29;954;-75
2022/05/26 04:02:56;;;;;;;;;;;;;;;21.33;31.84;97938.44;4900785;29;1165;-75
2022/05/26 04:05:22;;;;;;;;;;;;;;;21.36;32.06;97935.97;4898797;29;1694;-75
2022/05/26 04:07:48;;;;;;;;;;;;;;;21.41;31.85;97932.59;4892759;29;1488;-75
2022/05/26 04:10:13;;;;;;;;;;;;;;;21.50;32.30;97929.91;4888336;29;1006;-76
2022/05/26 04:12:39;;;;;;;;;;;;;;;21.83;32.47;97942.75;4869376;29;966;-75
2022/05/26 04:15:05;;;;;;;;;;;;;;;21.99;33.02;97956.03;4908392;29;1643;-76
2022/05/26 04:17:30;;;;;;;;;;;;;;;22.17;32.83;98019.94;4921834;29;1903;-75
2022/05/26 04:19:56;;;;;;;;;;;;;;;21.68;33.00;98080.31;4935016;29;1080;-76
2022/05/26 04:22:24;;;;;;;;;;;;;;;21.57;33.00;98065.63;4916487;29;1678;-75
2022/05/26 04:24:51;;;;;;;;;;;;;;;21.51;32.57;98011.59;4939707;28;2063;-75
2022/05/26 04:27:17;;;;;;;;;;;;;;;21.36;32.60;98032.22;4996556;28;976;-76
2022/05/26 04:29:42;;;;;;;;;;;;;;;21.41;32.79;98026.00;4996169;28;1792;-75
2022/05/26 04:32:08;;;;;;;;;;;;;;;21.56;32.25;98061.22;4996461;28;966;-75
2022/05/26 04:34:33;;;;;;;;;;;;;;;21.43;32.33;98077.31;4996284;28;951;-75
2022/05/26 04:36:59;;;;;;;;;;;;;;;21.44;32.45;98084.56;5012280;28;1906;-76
2022/05/26 04:39:24;;;;;;;;;;;;;;;21.63;32.15;98066.69;4996431;28;1209;-76
2022/05/26 04:41:50;;;;;;;;;;;;;;;21.49;32.56;98036.69;4988994;28;1932;-76
2022/05/26 04:44:16;;;;;;;;;;;;;;;21.42;32.37;98036.09;4938941;29;1505;-76
2022/05/26 04:46:41;;;;;;;;;;;;;;;21.37;32.58;98048.75;4898563;29;1715;-76
2022/05/26 04:49:07;;;;;;;;;;;;;;;20.78;32.73;97957.19;4899151;29;1919;-75
2022/05/26 04:51:34;;;;;;;;;;;;;;;21.43;32.39;98060.31;4918884;29;975;-75
2022/05/26 04:54:00;;;;;;;;;;;;;;;21.41;32.42;98054.31;4900147;29;1037;-76
2022/05/26 04:56:25;;;;;;;;;;;;;;;21.39;32.70;98045.47;4900128;29;958;-75
2022/05/26 04:58:50;;;;;;;;;;;;;;;21.58;32.01;98044.56;4900106;29;1915;-75
2022/05/26 05:01:17;;;;;;;;;;;;;;;21.42;32.30;98030.44;4899889;29;1057;-76
2022/05/26 05:03:43;;;;;;;;;;;;;;;21.35;32.68;98041.91;4880956;29;992;-75
2022/05/26 05:06:08;;;;;;;;;;;;;;;21.48;32.22;98034.31;4869147;29;991;-75
2022/05/26 05:08:34;;;;;;;;;;;;;;;21.49;32.14;98027.41;4865127;29;1214;-75
2022/05/26 05:11:00;;;;;;;;;;;;;;;21.49;32.07;98033.06;4880337;29;2517;-75
2022/05/26 05:13:26;;;;;;;;;;;;;;;21.49;32.22;98019.72;4910015;29;1924;-75
2022/05/26 05:15:53;;;;;;;;;;;;;;;21.41;32.32;98014.69;4937759;29;985;-75
2022/05/26 05:18:18;;;;;;;;;;;;;;;21.38;32.39;98030.50;4871375;29;1985;-75
2022/05/26 05:20:44;;;;;;;;;;;;;;;21.42;32.07;98053.06;4885814;29;995;-76
2022/05/26 05:23:11;;;;;;;;;;;;;;;21.42;32.23;98044.59;4862066;29;1192;-75
2022/05/26 05:25:41;;;;;;;;;;;;;;;21.57;32.11;98045.81;4879926;29;2073;-76
2022/05/26 05:28:10;;;;;;;;;;;;;;;21.44;32.13;98044.91;4895331;29;1755;-75
2022/05/26 05:30:40;;;;;;;;;;;;;;;21.54;31.93;98049.53;4918514;29;949;-76
2022/05/26 05:33:10;;;;;;;;;;;;;;;21.46;32.11;98057.41;4902271;29;1013;-75
2022/05/26 05:35:38;;;;;;;;;;;;;;;21.51;32.22;98050.44;4942314;29;1996;-76
2022/05/26 05:38:04;;;;;;;;;;;;;;;21.51;32.23;98061.75;4926617;29;1967;-76
2022/05/26 05:40:30;;;;;;;;;;;;;;;21.51;32.54;98061.75;4926731;29;994;-75
2022/05/26 05:42:55;;;;;;;;;;;;;;;21.54;32.17;98063.69;4920853;29;1822;-75
2022/05/26 05:45:21;;;;;;;;;;;;;;;21.55;32.32;98068.09;4880184;29;1002;-76
2022/05/26 05:47:46;;;;;;;;;;;;;;;21.51;32.54;98061.75;4880693;29;1020;-75
2022/05/26 05:50:12;;;;;;;;;;;;;;;21.41;32.72;98046.63;4912851;29;989;-76
2022/05/26 05:52:37;;;;;;;;;;;;;;;21.45;32.56;98047.34;4918088;29;1018;-75
2022/05/26 05:55:04;;;;;;;;;;;;;;;21.39;32.73;98048.28;4933857;29;1987;-75
2022/05/26 05:57:30;;;;;;;;;;;;;;;21.48;32.42;98063.41;4970571;28;1984;-75
2022/05/26 05:59:55;;;;;;;;;;;;;;;21.50;32.28;98049.63;4975182;28;1233;-76
2022/05/26 06:02:21;;;;;;;;;;;;;;;21.51;32.15;98058.91;4975363;28;1024;-76
2022/05/26 06:04:46;;;;;;;;;;;;;;;21.44;32.27;98056.25;4975021;28;982;-76
2022/05/26 06:07:15;;;;;;;;;;;;;;;21.39;32.40;98053.94;4936506;29;1077;-75
2022/05/26 06:09:41;;;;;;;;;;;;;;;21.31;32.02;98048.47;4936347;29;1965;-75
2022/05/26 06:12:07;;;;;;;;;;;;;;;21.37;32.03;98045.13;4917413;29;1104;-75
2022/05/26 06:14:33;;;;;;;;;;;;;;;21.47;31.66;98055.38;4915999;29;2066;-76
2022/05/26 06:16:58;;;;;;;;;;;;;;;21.35;31.75;98030.59;4938243;29;2019;-76
2022/05/26 06:19:23;;;;;;;;;;;;;;;21.43;31.49;98043.34;4955907;29;1871;-75
2022/05/26 06:21:49;;;;;;;;;;;;;;;21.28;31.79;98046.50;4955801;29;957;-76
2022/05/26 06:24:14;;;;;;;;;;;;;;;21.33;31.63;98040.31;4955716;29;1860;-75
2022/05/26 06:26:40;;;;;;;;;;;;;;;21.75;31.50;98042.50;4955523;29;969;-76
2022/05/26 06:37:19;;;;;;;;;;;;;;;21.74;32.69;98052.25;4917271;29;1899;-75
2022/05/26 06:39:45;;;;;;;;;;;;;;;21.65;32.52;98052.88;4917397;29;1033;-76
2022/05/26 06:42:10;;;;;;;;;;;;;;;21.54;32.80;98049.53;4916980;29;1319;-75
2022/05/26 06:44:38;;;;;;;;;;;;;;;21.60;32.15;98042.06;4915900;29;1605;-75
2022/05/26 06:47:05;;;;;;;;;;;;;;;21.54;32.03;98043.84;4917028;29;1830;-75
2022/05/26 06:49:31;;;;;;;;;;;;;;;21.54;31.92;98033.31;4917181;29;1005;-75
2022/05/26 06:51:57;;;;;;;;;;;;;;;21.52;32.00;98046.34;4935688;29;1894;-75
2022/05/26 06:54:22;;;;;;;;;;;;;;;21.51;31.90;98034.22;4920355;29;1375;-75
2022/05/26 06:56:48;;;;;;;;;;;;;;;21.47;31.74;98041.22;4935880;29;1892;-75
2022/05/26 06:59:13;;;;;;;;;;;;;;;21.50;31.47;98037.47;4936564;29;2093;-75
2022/05/26 07:01:39;;;;;;;;;;;;;;;21.41;31.53;98043.00;4919218;29;2111;-75
2022/05/26 07:04:04;;;;;;;;;;;;;;;21.47;31.36;98032.72;4950284;29;2109;-75
2022/05/26 07:06:30;;;;;;;;;;;;;;;21.39;31.73;98040.59;4954971;29;1030;-75
2022/05/26 07:08:56;;;;;;;;;;;;;;;21.35;31.54;98044.75;4955084;29;1055;-75
2022/05/26 07:11:21;;;;;;;;;;;;;;;21.41;31.53;98040.16;4955351;29;992;-75
2022/05/26 07:13:46;;;;;;;;;;;;;;;21.32;31.73;98047.22;4974838;28;1019;-75
2022/05/26 07:16:12;;;;;;;;;;;;;;;21.41;31.11;98034.50;5035555;28;921;-75
2022/05/26 07:18:38;;;;;;;;;;;;;;;21.38;31.31;98046.69;5027319;28;2155;-75
2022/05/26 07:21:04;;;;;;;;;;;;;;;21.33;31.36;98046.00;5035805;28;1064;-75
2022/05/26 07:23:32;;;;;;;;;;;;;;;21.38;31.10;98052.38;5035377;28;862;-75
2022/05/26 07:25:57;;;;;;;;;;;;;;;21.41;31.08;98057.16;5035703;28;969;-75
2022/05/26 07:28:25;;;;;;;;;;;;;;;21.45;31.02;98052.16;5031050;28;2345;-75
2022/05/26 07:30:53;;;;;;;;;;;;;;;21.31;31.13;98051.31;5031616;28;1839;-75
2022/05/26 07:33:19;;;;;;;;;;;;;;;21.40;31.23;98056.34;5023339;28;1989;-75
2022/05/26 07:35:45;;;;;;;;;;;;;;;21.33;31.27;98057.31;5007060;28;2046;-75
2022/05/26 07:43:38;;;;;;;;;;;;;;;21.89;32.99;98064.00;4995066;28;984;-75
2022/05/26 07:46:04;;;;;;;;;;;;;;;21.92;33.41;98063.13;4981061;28;1031;-75
2022/05/26 07:48:30;;;;;;;;;;;;;;;21.87;33.20;98066.50;4997269;28;1058;-75
2022/05/26 07:50:55;;;;;;;;;;;;;;;21.67;33.24;98081.56;4996884;28;1805;-75
2022/05/26 07:53:21;;;;;;;;;;;;;;;21.43;33.09;98077.31;4996884;28;1036;-75
2022/05/26 07:55:46;;;;;;;;;;;;;;;21.58;32.69;98067.22;4994060;28;1077;-76
2022/05/26 07:58:12;;;;;;;;;;;;;;;21.49;32.72;98064.22;4977272;28;1914;-76
2022/05/26 08:00:37;;;;;;;;;;;;;;;21.73;32.10;98073.31;4958026;29;973;-75
2022/05/26 08:03:03;;;;;;;;;;;;;;;21.52;32.43;98074.66;4958234;29;972;-76
2022/05/26 08:05:28;;;;;;;;;;;;;;;21.39;32.73;98076.59;4938619;29;984;-75
2022/05/26 08:07:54;;;;;;;;;;;;;;;21.47;32.57;98078.03;4919826;29;957;-75
2022/05/26 08:10:20;;;;;;;;;;;;;;;21.52;32.06;98080.31;4919496;29;1059;-75
2022/05/26 08:12:45;;;;;;;;;;;;;;;21.64;31.73;98082.44;4919900;29;951;-75
2022/05/26 08:15:11;;;;;;;;;;;;;;;21.48;32.28;98082.44;4888468;29;984;-75
2022/05/26 08:17:36;;;;;;;;;;;;;;;21.51;31.96;98084.41;4919589;29;1899;-75
2022/05/26 08:20:02;;;;;;;;;;;;;;;21.35;32.08;98085.19;4917264;29;1893;-75
2022/05/26 08:22:28;;;;;;;;;;;;;;;21.54;31.96;98083.50;4910271;29;1891;-76
2022/05/26 08:24:54;;;;;;;;;;;;;;;21.35;32.47;98084.38;4919422;29;1164;-76
2022/05/26 08:27:19;;;;;;;;;;;;;;;21.33;32.14;98084.81;4919253;29;1990;-75
2022/05/26 08:29:45;;;;;;;;;;;;;;;21.46;31.93;98082.09;4919411;29;1011;-75
2022/05/26 08:32:10;;;;;;;;;;;;;;;21.38;31.99;98080.66;4933325;29;1332;-75
2022/05/26 08:34:36;;;;;;;;;;;;;;;21.35;31.88;98088.03;4938165;29;1016;-75
2022/05/26 08:37:03;;;;;;;;;;;;;;;21.39;31.80;98083.03;4966200;28;1993;-75
2022/05/26 08:39:31;;;;;;;;;;;;;;;21.47;31.60;98090.13;5023977;28;1706;-75
2022/05/26 08:41:57;;;;;;;;;;;;;;;21.39;31.60;98091.53;5037997;28;1178;-75
2022/05/26 08:44:29;;;;;;;;;;;;;;;21.40;31.61;98095.16;5020576;28;913;-75
2022/05/26 08:47:01;;;;;;;;;;;;;;;21.54;31.68;98092.00;4991755;28;1232;-76
2022/05/26 08:49:51;;;;;;;;;;;;;;;21.37;31.73;98090.41;4976598;28;1009;-75
2022/05/26 08:52:18;;;;;;;;;;;;;;;21.42;31.57;98095.53;4918946;29;1047;-75
2022/05/26 08:54:44;;;;;;;;;;;;;;;21.49;31.46;98103.84;4918617;29;1042;-75
2022/05/26 08:57:13;;;;;;;;;;;;;;;21.53;31.38;98099.69;4919063;29;1902;-75
2022/05/26 08:59:45;;;;;;;;;;;;;;;21.42;31.63;98098.38;4866030;29;960;-75
2022/05/26 09:02:16;;;;;;;;;;;;;;;21.36;31.76;98094.47;4880062;29;1727;-75
2022/05/26 09:04:41;;;;;;;;;;;;;;;21.50;31.56;98100.59;4865707;29;1013;-75
2022/05/26 09:12:57;;;;;;;;;;;;;;;21.53;32.29;98098.91;4843530;29;1532;-75
2022/05/26 09:15:23;;;;;;;;;;;;;;;21.75;32.44;98099.16;4841983;29;1829;-75
2022/05/26 09:17:48;;;;;;;;;;;;;;;21.90;32.66;98093.91;4852084;29;1911;-75
2022/05/26 09:20:25;;;;;;;;;;;;;;;21.78;32.62;98087.72;4864492;29;1058;-75
2022/05/26 09:22:51;;;;;;;;;;;;;;;21.66;32.74;98102.63;4833117;29;1615;-76
2022/05/26 09:25:31;;;;;;;;;;;;;;;21.52;33.04;98102.97;4825460;29;973;-75
2022/05/26 09:27:57;;;;;;;;;;;;;;;21.47;32.99;98095.81;4825751;29;1031;-75
2022/05/26 09:30:23;;;;;;;;;;;;;;;21.39;32.83;98096.41;4819136;29;950;-75
2022/05/26 09:32:49;;;;;;;;;;;;;;;21.44;32.50;98101.53;4854563;29;1230;-75
2022/05/26 09:35:22;;;;;;;;;;;;;;;21.42;32.59;98098.38;4843697;29;961;-75
2022/05/26 09:37:48;;;;;;;;;;;;;;;21.53;32.40;98096.06;4856777;29;1966;-76
2022/05/26 09:40:33;;;;;;;;;;;;;;;21.46;32.71;98093.41;4880839;29;991;-75
2022/05/26 09:43:02;;;;;;;;;;;;;;;21.42;32.68;98092.72;4883765;29;1307;-75
2022/05/26 09:45:32;;;;;;;;;;;;;;;21.46;32.58;98088.56;4899479;29;999;-75
2022/05/26 09:47:58;;;;;;;;;;;;;;;21.58;32.33;98095.53;4897037;29;2169;-76
2022/05/26 09:50:33;;;;;;;;;;;;;;;21.43;32.61;98088.63;4914978;29;945;-75
2022/05/26 09:52:58;;;;;;;;;;;;;;;21.43;32.89;98088.63;4904207;29;902;-75
2022/05/26 09:55:26;;;;;;;;;;;;;;;21.47;32.75;98095.00;4936702;29;954;-75
2022/05/26 09:58:11;;;;;;;;;;;;;;;21.53;32.60;98096.84;4936545;29;1906;-75
2022/05/26 10:00:40;;;;;;;;;;;;;;;21.40;32.60;98106.47;4936710;29;1012;-76
2022/05/26 10:03:11;;;;;;;;;;;;;;;21.47;32.51;98101.47;4960396;28;2187;-75
2022/05/26 10:05:51;;;;;;;;;;;;;;;21.50;32.45;98105.44;4974299;28;1188;-76
2022/05/26 10:08:23;;;;;;;;;;;;;;;21.50;32.56;98102.59;4975031;28;972;-75
2022/05/26 10:11:04;;;;;;;;;;;;;;;21.43;32.62;98105.63;4975169;28;1005;-75
2022/05/26 10:13:50;;;;;;;;;;;;;;;21.64;33.05;98116.41;4974906;28;930;-75
2022/05/26 10:16:18;;;;;;;;;;;;;;;22.33;33.70;98099.25;4972395;28;1913;-75
2022/05/26 10:18:46;;;;;;;;;;;;;;;22.04;34.56;98104.88;4975035;28;1975;-76
2022/05/26 10:21:30;;;;;;;;;;;;;;;21.87;34.67;98106.16;4974869;28;1639;-75
2022/05/26 10:24:08;;;;;;;;;;;;;;;21.63;34.78;98100.66;4974957;28;1195;-75
2022/05/26 10:26:56;;;;;;;;;;;;;;;21.55;34.78;98108.56;4992980;28;2510;-75
2022/05/26 10:29:41;;;;;;;;;;;;;;;21.60;34.01;98098.69;4925738;29;2275;-75
2022/05/26 10:32:10;;;;;;;;;;;;;;;21.67;33.49;98101.38;4920889;29;1931;-76
2022/05/26 10:34:42;;;;;;;;;;;;;;;21.74;33.17;98095.53;4915057;29;2509;-75
2022/05/26 10:37:27;;;;;;;;;;;;;;;21.64;33.38;98095.78;4954523;29;2405;-75
2022/05/26 10:39:59;;;;;;;;;;;;;;;21.54;33.45;98083.50;4955256;29;1938;-75
2022/05/26 10:42:26;;;;;;;;;;;;;;;21.56;33.29;98092.34;4930696;29;2072;-75
2022/05/26 10:45:05;;;;;;;;;;;;;;;21.58;33.06;98101.19;4936216;29;1843;-75
2022/05/26 10:47:34;;;;;;;;;;;;;;;21.39;32.90;98104.91;4921386;29;975;-75
2022/05/26 10:50:04;;;;;;;;;;;;;;;21.43;33.06;98094.28;4936269;29;1928;-75
2022/05/26 10:52:40;;;;;;;;;;;;;;;21.44;32.64;98096.66;4920300;29;1099;-76
2022/05/26 10:55:16;;;;;;;;;;;;;;;21.54;32.43;98103.31;4910386;29;1912;-75
2022/05/26 10:57:47;;;;;;;;;;;;;;;21.48;32.65;98105.09;4897608;29;1972;-75
2022/05/26 11:00:16;;;;;;;;;;;;;;;21.66;31.94;98108.28;4898318;29;1160;-75
2022/05/26 11:02:44;;;;;;;;;;;;;;;21.63;31.95;98103.50;4882411;29;974;-76
2022/05/26 11:05:17;;;;;;;;;;;;;;;21.68;31.87;98100.13;4897957;29;982;-76
2022/05/26 11:08:04;;;;;;;;;;;;;;;21.50;32.24;98100.59;4919796;29;1046;-75
2022/05/26 11:10:45;;;;;;;;;;;;;;;21.43;32.06;98105.63;4896852;29;1675;-75
2022/05/26 11:13:13;;;;;;;;;;;;;;;21.58;32.06;98104.03;4882152;29;1327;-75
2022/05/26 11:18:29;;;;;;;;;;;;;;;21.55;31.81;98090.75;4886668;29;1970;-76
2022/05/26 11:20:56;;;;;;;;;;;;;;;21.51;32.00;98096.50;4886231;29;958;-75
2022/05/26 11:23:22;;;;;;;;;;;;;;;21.35;32.00;98098.53;4900711;29;1960;-76
2022/05/26 11:25:50;;;;;;;;;;;;;;;21.50;31.82;98100.59;4921900;29;1477;-76
2022/05/26 11:28:27;;;;;;;;;;;;;;;21.45;31.89;98097.47;4963996;28;1809;-75
2022/05/26 11:36:44;;;;;;;;;;;;;;;21.61;31.56;98094.66;4958488;29;925;-75
2022/05/26 11:39:16;;;;;;;;;;;;;;;21.45;31.88;98092.63;4958522;29;1016;-76
2022/05/26 11:41:49;;;;;;;;;;;;;;;21.46;32.15;98090.59;4997943;28;2135;-75
2022/05/26 11:44:28;;;;;;;;;;;;;;;21.55;31.68;98097.22;4996864;28;1067;-75
2022/05/26 11:46:56;;;;;;;;;;;;;;;21.57;31.65;98100.41;4980905;28;948;-75
2022/05/26 11:49:40;;;;;;;;;;;;;;;21.25;32.19;98092.66;4994861;28;1004;-75
2022/05/26 11:52:08;;;;;;;;;;;;;;;21.29;32.23;98096.19;4996843;28;1073;-75
2022/05/26 11:54:52;;;;;;;;;;;;;;;21.33;31.99;98099.75;4997023;28;983;-75
2022/05/26 11:57:35;;;;;;;;;;;;;;;21.54;31.74;98094.81;4994810;28;2116;-75
2022/05/26 12:00:16;;;;;;;;;;;;;;;21.46;31.91;98087.75;4997127;28;943;-75
2022/05/26 12:02:42;;;;;;;;;;;;;;;21.53;31.72;98091.19;5012998;28;977;-75
2022/05/26 12:05:26;;;;;;;;;;;;;;;21.55;31.82;98090.75;4984962;28;2023;-75
2022/05/26 12:07:52;;;;;;;;;;;;;;;21.59;31.54;98089.41;4957798;29;1206;-75
2022/05/26 12:10:18;;;;;;;;;;;;;;;21.53;31.56;98098.91;4957738;29;982;-76
2022/05/26 12:12:43;;;;;;;;;;;;;;;21.51;31.70;98090.06;4942173;29;981;-75
2022/05/26 12:15:21;;;;;;;;;;;;;;;21.32;32.24;98084.03;4959621;28;1241;-75
2022/05/26 12:17:50;;;;;;;;;;;;;;;21.47;31.66;98075.97;4996584;28;1910;-75
2022/05/26 12:20:16;;;;;;;;;;;;;;;21.61;31.57;98077.66;4983151;28;2103;-75
2022/05/26 12:22:47;;;;;;;;;;;;;;;21.49;31.62;98075.53;4996632;28;995;-76
2022/05/26 12:25:13;;;;;;;;;;;;;;;21.42;31.84;98072.88;4996263;28;1021;-75
2022/05/26 12:27:47;;;;;;;;;;;;;;;21.36;32.09;98069.00;4996289;28;976;-75
2022/05/26 12:30:12;;;;;;;;;;;;;;;21.55;31.63;98068.09;4995535;28;1047;-76
2022/05/26 12:32:38;;;;;;;;;;;;;;;21.57;31.74;98077.75;4993750;28;936;-75
2022/05/26 12:35:07;;;;;;;;;;;;;;;21.55;31.63;98077.41;4978961;28;2088;-75
2022/05/26 12:37:33;;;;;;;;;;;;;;;21.54;31.79;98077.84;4999170;28;1973;-75
2022/05/26 12:40:05;;;;;;;;;;;;;;;21.40;32.17;98072.50;5015703;28;996;-76
2022/05/26 12:42:31;;;;;;;;;;;;;;;21.45;31.95;98080.47;5015764;28;1128;-75
2022/05/26 12:45:15;;;;;;;;;;;;;;;21.42;31.77;98084.22;5015621;28;1198;-75
2022/05/26 12:47:46;;;;;;;;;;;;;;;21.45;31.71;98074.81;5015520;28;1056;-75
2022/05/26 12:50:15;;;;;;;;;;;;;;;21.47;31.77;98083.69;4990967;28;2115;-75
2022/05/26 12:52:55;;;;;;;;;;;;;;;21.47;31.42;98066.69;5037398;28;923;-75
2022/05/26 12:55:26;;;;;;;;;;;;;;;21.37;31.53;98067.75;5037578;28;933;-75
2022/05/26 12:58:02;;;;;;;;;;;;;;;21.46;31.48;98067.94;4975886;28;1914;-75
2022/05/26 13:00:35;;;;;;;;;;;;;;;21.42;31.45;98058.72;4975343;28;2171;-75
2022/05/26 13:03:04;;;;;;;;;;;;;;;21.67;31.23;98058.09;4976433;28;983;-75
2022/05/26 13:05:32;;;;;;;;;;;;;;;21.44;31.86;98068.38;4960225;28;971;-75
2022/05/26 13:07:58;;;;;;;;;;;;;;;21.97;32.31;98060.53;4976292;28;1016;-75
2022/05/26 13:10:25;;;;;;;;;;;;;;;21.95;32.93;98062.22;4960259;28;970;-75
2022/05/26 13:12:50;;;;;;;;;;;;;;;21.98;33.59;98067.00;4959914;28;1015;-75
2022/05/26 13:15:25;;;;;;;;;;;;;;;21.77;33.89;98028.72;4975280;28;2159;-75
2022/05/26 13:17:51;;;;;;;;;;;;;;;21.71;33.89;98065.28;4959486;28;1987;-75
2022/05/26 13:20:24;;;;;;;;;;;;;;;21.77;33.71;98063.50;4976048;28;1118;-76
2022/05/26 13:22:49;;;;;;;;;;;;;;;21.64;33.34;98062.59;4975536;28;1004;-75
2022/05/26 13:25:16;;;;;;;;;;;;;;;21.84;32.79;98054.00;4975782;28;1043;-75
2022/05/26 13:27:52;;;;;;;;;;;;;;;21.64;32.99;98065.44;4977310;28;937;-75
2022/05/26 13:33:08;;;;;;;;;;;;;;;21.64;32.60;98065.44;5014331;28;1182;-76
2022/05/26 13:35:43;;;;;;;;;;;;;;;21.58;32.64;98056.69;5014548;28;1063;-75
2022/05/26 13:38:40;;;;;;;;;;;;;;;21.57;32.45;98059.97;4998289;28;1975;-76
2022/05/26 13:41:08;;;;;;;;;;;;;;;21.48;32.36;98063.41;4955194;28;988;-75
2022/05/26 13:43:35;;;;;;;;;;;;;;;21.42;32.31;98058.72;4938700;29;2127;-76
2022/05/26 13:46:00;;;;;;;;;;;;;;;21.42;32.20;98058.72;4918215;29;1062;-75